Time;durP1;ratioP1;P1;durP2;ratioP2;P2;SDS_P1;SDS_P2;PMS_P1;PMS_P2;Temp;Humidity;BMP_temperature;BMP_pressure;BME280_temperature;BME280_humidity;BME280_pressure;Samples;Min_cycle;Max_cycle;Signal;HPM_P1;HPM_P2
2021/05/10 00:00:48;;;;;;;;;;;;;;;20.98;48.15;100201.78;2102025;28;3985;-37
2021/05/10 00:01:49;;;;;;;;;;;;;;;20.98;47.98;100200.91;2099678;28;4051;-32
2021/05/10 00:02:50;;;;;;;;;;;;;;;20.98;48.13;100206.59;2100885;28;4051;-34
2021/05/10 00:03:50;;;;;;;;;;;;;;;20.97;48.06;100208.63;2101455;28;4157;-36
2021/05/10 00:04:51;;;;;;;;;;;;;;;20.98;48.02;100206.59;2101054;28;4046;-34
2021/05/10 00:05:52;;;;;;;;;;;;;;;20.99;48.22;100208.28;2101055;28;3896;-33
2021/05/10 00:06:53;;;;;;;;;;;;;;;20.98;48.04;100203.75;2101605;28;3822;-33
2021/05/10 00:07:53;;;;;;;;;;;;;;;20.98;48.17;100209.44;2101070;28;4173;-35
2021/05/10 00:08:56;;;;;;;;;;;;;;;20.98;48.13;100207.47;2101164;28;4024;-37
2021/05/10 00:09:56;;;;;;;;;;;;;;;20.98;48.06;100200.91;2093030;28;4123;-34
2021/05/10 00:10:57;;;;;;;;;;;;;;;20.98;48.13;100207.47;2092487;28;3978;-33
2021/05/10 00:11:58;;;;;;;;;;;;;;;20.98;48.24;100206.59;2098493;28;3979;-36
2021/05/10 00:12:59;;;;;;;;;;;;;;;20.98;48.17;100209.44;2100386;28;4016;-33
2021/05/10 00:13:59;;;;;;;;;;;;;;;20.97;48.08;100202.94;2092355;28;3880;-32
2021/05/10 00:15:00;;;;;;;;;;;;;;;20.97;48.10;100205.78;2092328;28;3819;-34
2021/05/10 00:16:01;;;;;;;;;;;;;;;20.96;48.32;100207.00;2099033;28;3958;-34
2021/05/10 00:17:02;;;;;;;;;;;;;;;20.97;48.23;100214.31;2100776;28;4029;-37
2021/05/10 00:18:03;;;;;;;;;;;;;;;20.98;48.12;100203.75;2099192;28;4006;-33
2021/05/10 00:19:03;;;;;;;;;;;;;;;20.98;48.20;100209.44;2101376;28;3933;-35
2021/05/10 00:20:04;;;;;;;;;;;;;;;20.97;48.01;100204.97;2101292;28;3636;-34
2021/05/10 00:21:05;;;;;;;;;;;;;;;20.97;48.17;100205.78;2099029;28;4984;-35
2021/05/10 00:22:06;;;;;;;;;;;;;;;20.98;48.17;100206.59;2102395;28;4054;-34
2021/05/10 00:23:06;;;;;;;;;;;;;;;20.96;48.28;100201.31;2102715;28;4054;-33
2021/05/10 00:24:07;;;;;;;;;;;;;;;20.97;48.20;100210.66;2103084;28;4175;-33
2021/05/10 00:25:08;;;;;;;;;;;;;;;20.97;48.27;100200.09;2102545;28;4083;-35
2021/05/10 00:26:09;;;;;;;;;;;;;;;20.97;48.17;100204.97;2103140;28;3911;-35
2021/05/10 00:27:09;;;;;;;;;;;;;;;20.97;48.21;100210.66;2102341;28;4096;-32
2021/05/10 00:28:10;;;;;;;;;;;;;;;20.96;48.11;100207.00;2102237;28;3868;-35
2021/05/10 00:29:11;;;;;;;;;;;;;;;20.97;48.10;100199.28;2103013;28;4027;-36
2021/05/10 00:30:12;;;;;;;;;;;;;;;20.97;48.10;100207.81;2099588;28;4069;-33
2021/05/10 00:31:12;;;;;;;;;;;;;;;20.96;48.01;100201.31;2102872;28;3919;-39
2021/05/10 00:32:13;;;;;;;;;;;;;;;20.96;48.15;100203.34;2102249;28;4044;-31
2021/05/10 00:33:14;;;;;;;;;;;;;;;20.96;48.27;100204.16;2102562;28;3761;-37
2021/05/10 00:34:15;;;;;;;;;;;;;;;20.97;48.11;100207.81;2101593;28;3879;-37
2021/05/10 00:35:15;;;;;;;;;;;;;;;20.98;48.13;100206.59;2103116;28;4042;-36
2021/05/10 00:36:16;;;;;;;;;;;;;;;20.96;48.12;100203.34;2102853;28;4087;-34
2021/05/10 00:37:17;;;;;;;;;;;;;;;20.96;48.09;100200.50;2101766;28;3892;-34
2021/05/10 00:38:18;;;;;;;;;;;;;;;20.95;48.29;100202.50;2102096;28;4443;-32
2021/05/10 00:39:18;;;;;;;;;;;;;;;20.97;48.28;100199.28;2099331;28;3862;-34
2021/05/10 00:40:19;;;;;;;;;;;;;;;20.96;48.25;100198.47;2101644;28;4078;-32
2021/05/10 00:41:20;;;;;;;;;;;;;;;20.96;48.27;100206.19;2101908;28;4025;-35
2021/05/10 00:42:20;;;;;;;;;;;;;;;20.96;48.09;100203.34;2103338;28;3996;-37
2021/05/10 00:43:21;;;;;;;;;;;;;;;20.97;48.10;100205.78;2100939;28;4039;-33
2021/05/10 00:44:22;;;;;;;;;;;;;;;20.97;48.13;100204.97;2102744;28;3875;-35
2021/05/10 00:45:23;;;;;;;;;;;;;;;20.97;48.22;100207.81;2101797;28;4084;-34
2021/05/10 00:46:23;;;;;;;;;;;;;;;20.97;48.22;100208.63;2102871;28;3816;-35
2021/05/10 00:47:25;;;;;;;;;;;;;;;20.97;48.30;100207.81;2103106;28;4068;-35
2021/05/10 00:48:25;;;;;;;;;;;;;;;20.96;48.10;100209.03;2102799;28;3881;-37
2021/05/10 00:49:26;;;;;;;;;;;;;;;20.97;48.25;100204.97;2102729;28;4111;-38
2021/05/10 00:50:27;;;;;;;;;;;;;;;20.97;48.27;100210.66;2102127;28;4059;-37
2021/05/10 00:51:28;;;;;;;;;;;;;;;20.96;48.30;100203.34;2100380;28;4048;-33
2021/05/10 00:52:28;;;;;;;;;;;;;;;20.96;48.20;100214.69;2102391;28;4017;-36
2021/05/10 00:53:30;;;;;;;;;;;;;;;20.97;48.13;100207.81;2102783;28;4055;-34
2021/05/10 00:54:31;;;;;;;;;;;;;;;20.97;48.42;100210.66;2102720;28;4050;-34
2021/05/10 00:55:32;;;;;;;;;;;;;;;20.96;48.20;100209.84;2101693;28;3854;-32
2021/05/10 00:56:32;;;;;;;;;;;;;;;20.96;48.24;100207.00;2102966;28;4177;-34
2021/05/10 00:57:33;;;;;;;;;;;;;;;20.96;48.22;100214.69;2102223;28;4059;-35
2021/05/10 00:58:34;;;;;;;;;;;;;;;20.96;48.21;100209.84;2102660;28;4109;-34
2021/05/10 00:59:35;;;;;;;;;;;;;;;20.95;48.33;100213.88;2102852;28;4154;-35
2021/05/10 01:00:35;;;;;;;;;;;;;;;20.96;48.24;100209.03;2101104;28;4023;-36
2021/05/10 01:01:36;;;;;;;;;;;;;;;20.95;48.28;100208.19;2102710;28;4061;-33
2021/05/10 01:02:37;;;;;;;;;;;;;;;20.95;48.16;100207.34;2102356;28;4045;-35
2021/05/10 01:03:38;;;;;;;;;;;;;;;20.95;48.20;100211.03;2101936;28;4020;-33
2021/05/10 01:04:38;;;;;;;;;;;;;;;20.95;48.11;100208.19;2102344;28;4043;-32
2021/05/10 01:05:39;;;;;;;;;;;;;;;20.95;48.16;100211.03;2102487;28;3845;-33
2021/05/10 01:06:40;;;;;;;;;;;;;;;20.96;48.10;100209.03;2102677;28;4039;-38
2021/05/10 01:07:41;;;;;;;;;;;;;;;20.95;48.24;100201.66;2092997;28;3927;-33
2021/05/10 01:08:41;;;;;;;;;;;;;;;20.95;48.15;100204.50;2093439;28;4020;-34
2021/05/10 01:09:42;;;;;;;;;;;;;;;20.95;48.15;100198.81;2097352;28;4008;-33
2021/05/10 01:10:43;;;;;;;;;;;;;;;20.95;48.22;100207.34;2102069;28;4131;-39
2021/05/10 01:11:44;;;;;;;;;;;;;;;20.95;48.22;100201.66;2102299;28;4238;-32
2021/05/10 01:12:45;;;;;;;;;;;;;;;20.95;48.25;100201.66;2101737;28;4018;-33
2021/05/10 01:13:45;;;;;;;;;;;;;;;20.95;48.36;100204.50;2102745;28;3856;-34
2021/05/10 01:14:46;;;;;;;;;;;;;;;20.95;48.29;100201.66;2102366;28;4177;-36
2021/05/10 01:15:47;;;;;;;;;;;;;;;20.95;48.24;100196.81;2101543;28;4058;-33
2021/05/10 01:16:48;;;;;;;;;;;;;;;20.95;48.25;100202.50;2102630;28;3989;-37
2021/05/10 01:17:51;;;;;;;;;;;;;;;20.95;48.42;100198.81;2100486;28;3901;-36
2021/05/10 01:18:53;;;;;;;;;;;;;;;20.95;48.33;100202.50;2099491;28;4149;-34
2021/05/10 01:19:53;;;;;;;;;;;;;;;20.95;48.20;100198.81;2097775;28;3982;-36
2021/05/10 01:20:54;;;;;;;;;;;;;;;20.95;48.23;100198.81;2103089;28;4087;-38
2021/05/10 01:21:55;;;;;;;;;;;;;;;20.95;48.43;100199.66;2102319;28;4104;-36
2021/05/10 01:22:57;;;;;;;;;;;;;;;20.96;48.31;100198.47;2102645;28;3983;-34
2021/05/10 01:23:58;;;;;;;;;;;;;;;20.95;48.32;100196.81;2102593;28;3839;-37
2021/05/10 01:24:59;;;;;;;;;;;;;;;20.96;48.43;100207.00;2101698;28;3797;-34
2021/05/10 01:25:59;;;;;;;;;;;;;;;20.96;48.35;100197.66;2102351;28;3836;-33
2021/05/10 01:27:00;;;;;;;;;;;;;;;20.96;48.40;100204.16;2100256;28;4132;-33
2021/05/10 01:28:01;;;;;;;;;;;;;;;20.96;48.40;100197.66;2097356;28;4018;-33
2021/05/10 01:29:02;;;;;;;;;;;;;;;20.96;48.49;100201.31;2100763;28;4149;-33
2021/05/10 01:30:02;;;;;;;;;;;;;;;20.96;48.36;100197.66;2100887;28;3866;-33
2021/05/10 01:31:03;;;;;;;;;;;;;;;20.95;48.44;100199.66;2099561;28;3775;-34
2021/05/10 01:32:04;;;;;;;;;;;;;;;20.95;48.34;100198.81;2099947;28;3911;-34
2021/05/10 01:33:05;;;;;;;;;;;;;;;20.96;48.48;100197.66;2099526;28;4378;-35
2021/05/10 01:34:06;;;;;;;;;;;;;;;20.96;48.48;100209.03;2101650;28;4157;-38
2021/05/10 01:35:06;;;;;;;;;;;;;;;20.95;48.38;100193.97;2099783;28;4034;-35
2021/05/10 01:36:07;;;;;;;;;;;;;;;20.96;48.51;100200.50;2102537;28;4083;-32
2021/05/10 01:37:08;;;;;;;;;;;;;;;20.95;48.46;100195.97;2102304;28;4036;-31
2021/05/10 01:38:08;;;;;;;;;;;;;;;20.95;48.53;100193.97;2101844;28;3884;-36
2021/05/10 01:39:09;;;;;;;;;;;;;;;20.95;48.56;100191.13;2100939;28;4072;-34
2021/05/10 01:40:10;;;;;;;;;;;;;;;20.96;48.46;100192.78;2102336;28;3869;-36
2021/05/10 01:41:11;;;;;;;;;;;;;;;20.97;48.44;100193.59;2101725;28;4104;-33
2021/05/10 01:42:11;;;;;;;;;;;;;;;20.97;48.46;100194.41;2101176;28;4041;-38
2021/05/10 01:43:17;;;;;;;;;;;;;;;20.96;48.38;100191.97;2102398;28;3866;-30
2021/05/10 01:44:17;;;;;;;;;;;;;;;20.96;48.46;100186.28;2101551;28;4041;-31
2021/05/10 01:45:18;;;;;;;;;;;;;;;20.96;48.50;100194.81;2102781;28;4011;-31
2021/05/10 01:46:19;;;;;;;;;;;;;;;20.96;48.65;100189.94;2101009;28;4085;-33
2021/05/10 01:47:20;;;;;;;;;;;;;;;20.96;48.54;100191.97;2101316;28;4029;-37
2021/05/10 01:48:20;;;;;;;;;;;;;;;20.96;48.58;100192.78;2102488;28;4028;-38
2021/05/10 01:49:21;;;;;;;;;;;;;;;20.95;48.53;100188.28;2102528;28;3836;-36
2021/05/10 01:50:22;;;;;;;;;;;;;;;20.97;48.64;100199.28;2101950;28;4049;-39
2021/05/10 01:51:23;;;;;;;;;;;;;;;20.97;48.59;100185.06;2100698;28;4026;-34
2021/05/10 01:52:23;;;;;;;;;;;;;;;20.97;48.53;100197.25;2101744;28;4195;-32
2021/05/10 01:53:25;;;;;;;;;;;;;;;20.96;48.52;100192.78;2101762;28;4072;-36
2021/05/10 01:54:26;;;;;;;;;;;;;;;20.95;48.56;100191.13;2102385;28;4063;-34
2021/05/10 01:55:26;;;;;;;;;;;;;;;20.96;48.64;100194.81;2101612;28;4072;-33
2021/05/10 01:56:27;;;;;;;;;;;;;;;20.96;48.58;100194.81;2102564;28;4113;-36
2021/05/10 01:57:28;;;;;;;;;;;;;;;20.96;48.74;100197.66;2100757;28;3893;-34
2021/05/10 01:58:28;;;;;;;;;;;;;;;20.96;48.66;100189.13;2102183;28;3863;-36
2021/05/10 01:59:29;;;;;;;;;;;;;;;20.96;48.64;100187.09;2101552;28;4046;-32
2021/05/10 02:00:30;;;;;;;;;;;;;;;20.96;48.63;100194.81;2101810;28;4296;-31
2021/05/10 02:01:31;;;;;;;;;;;;;;;20.96;48.69;100197.66;2101722;28;3902;-35
2021/05/10 02:02:31;;;;;;;;;;;;;;;20.96;48.73;100191.97;2101446;28;4060;-36
2021/05/10 02:03:32;;;;;;;;;;;;;;;20.96;48.63;100191.97;2101045;28;3900;-36
2021/05/10 02:04:33;;;;;;;;;;;;;;;20.97;48.74;100202.13;2102151;28;3755;-33
2021/05/10 02:05:34;;;;;;;;;;;;;;;20.96;48.65;100198.47;2101925;28;4024;-34
2021/05/10 02:06:35;;;;;;;;;;;;;;;20.97;48.75;100199.28;2101474;28;4079;-32
2021/05/10 02:07:35;;;;;;;;;;;;;;;20.96;48.63;100189.13;2101150;28;3880;-34
2021/05/10 02:08:36;;;;;;;;;;;;;;;20.97;48.58;100193.59;2101653;28;4269;-37
2021/05/10 02:09:37;;;;;;;;;;;;;;;20.97;48.72;100202.13;2100904;28;4097;-31
2021/05/10 02:10:38;;;;;;;;;;;;;;;20.97;48.82;100193.59;2102269;28;3883;-35
2021/05/10 02:11:39;;;;;;;;;;;;;;;20.97;48.73;100190.75;2102041;28;4047;-35
2021/05/10 02:12:40;;;;;;;;;;;;;;;20.97;48.76;100190.75;2102618;28;4042;-33
2021/05/10 02:13:40;;;;;;;;;;;;;;;20.97;48.73;100187.91;2101172;28;3902;-34
2021/05/10 02:14:41;;;;;;;;;;;;;;;20.97;48.70;100182.22;2101733;28;4037;-36
2021/05/10 02:15:42;;;;;;;;;;;;;;;20.96;48.83;100180.59;2101007;28;3837;-34
2021/05/10 02:16:42;;;;;;;;;;;;;;;20.97;48.72;100182.22;2100938;28;3854;-33
2021/05/10 02:17:43;;;;;;;;;;;;;;;20.96;48.73;100181.41;2101643;28;4260;-35
2021/05/10 02:18:44;;;;;;;;;;;;;;;20.96;48.89;100178.56;2101557;28;4138;-33
2021/05/10 02:19:45;;;;;;;;;;;;;;;20.96;48.95;100180.59;2101188;28;3987;-32
2021/05/10 02:20:46;;;;;;;;;;;;;;;20.96;48.84;100186.28;2101727;28;4043;-30
2021/05/10 02:21:47;;;;;;;;;;;;;;;20.96;48.78;100183.44;2101762;28;4075;-36
2021/05/10 02:22:47;;;;;;;;;;;;;;;20.97;48.85;100176.53;2101706;28;3868;-34
2021/05/10 02:23:49;;;;;;;;;;;;;;;20.96;49.06;100174.91;2100919;28;3861;-35
2021/05/10 02:24:50;;;;;;;;;;;;;;;20.97;48.97;100176.53;2101992;28;4010;-34
2021/05/10 02:25:51;;;;;;;;;;;;;;;20.97;49.11;100176.53;2100090;28;4048;-36
2021/05/10 02:26:51;;;;;;;;;;;;;;;20.97;49.09;100179.38;2100377;28;4216;-36
2021/05/10 02:27:52;;;;;;;;;;;;;;;20.97;49.14;100180.19;2101818;28;4145;-34
2021/05/10 02:28:53;;;;;;;;;;;;;;;20.97;49.17;100174.50;2101233;28;4028;-34
2021/05/10 02:29:54;;;;;;;;;;;;;;;20.97;49.12;100180.19;2102393;28;4032;-33
2021/05/10 02:30:54;;;;;;;;;;;;;;;20.97;49.09;100182.22;2101913;28;3956;-34
2021/05/10 02:31:55;;;;;;;;;;;;;;;20.96;49.01;100170.03;2101674;28;4199;-35
2021/05/10 02:32:56;;;;;;;;;;;;;;;20.96;49.11;100181.41;2100827;28;4007;-34
2021/05/10 02:33:57;;;;;;;;;;;;;;;20.96;49.10;100170.03;2101566;28;3979;-38
2021/05/10 02:34:58;;;;;;;;;;;;;;;20.98;49.25;100169.63;2101099;28;4101;-34
2021/05/10 02:35:59;;;;;;;;;;;;;;;20.97;49.12;100180.19;2101485;28;4017;-36
2021/05/10 02:36:59;;;;;;;;;;;;;;;20.97;49.19;100183.03;2101476;28;3988;-30
2021/05/10 02:38:00;;;;;;;;;;;;;;;20.98;49.20;100183.84;2101769;28;3992;-33
2021/05/10 02:39:01;;;;;;;;;;;;;;;20.97;49.12;100183.03;2101234;28;3942;-36
2021/05/10 02:40:01;;;;;;;;;;;;;;;20.97;49.13;100187.91;2099338;28;3874;-38
2021/05/10 02:41:02;;;;;;;;;;;;;;;20.96;49.24;100180.59;2101466;28;4004;-35
2021/05/10 02:42:03;;;;;;;;;;;;;;;20.95;49.25;100182.59;2101696;28;4088;-33
2021/05/10 02:43:04;;;;;;;;;;;;;;;20.95;49.30;100179.75;2100752;28;3976;-32
2021/05/10 02:44:04;;;;;;;;;;;;;;;20.96;49.21;100186.28;2100434;28;3955;-31
2021/05/10 02:45:05;;;;;;;;;;;;;;;20.96;49.26;100180.59;2100615;28;4041;-32
2021/05/10 02:46:06;;;;;;;;;;;;;;;20.96;49.25;100178.56;2101289;28;4083;-33
2021/05/10 02:47:06;;;;;;;;;;;;;;;20.96;49.38;100181.41;2102225;28;4015;-34
2021/05/10 02:48:07;;;;;;;;;;;;;;;20.95;49.36;100179.75;2095702;28;4159;-36
2021/05/10 02:49:09;;;;;;;;;;;;;;;20.96;49.21;100169.22;2099744;28;4052;-33
2021/05/10 02:50:09;;;;;;;;;;;;;;;20.96;49.40;100180.59;2102221;28;4044;-34
2021/05/10 02:51:10;;;;;;;;;;;;;;;20.96;49.17;100180.59;2101852;28;4240;-36
2021/05/10 02:52:11;;;;;;;;;;;;;;;20.96;49.18;100186.28;2097770;28;4042;-33
2021/05/10 02:53:11;;;;;;;;;;;;;;;20.96;49.20;100183.44;2099037;28;4052;-33
2021/05/10 02:54:12;;;;;;;;;;;;;;;20.95;49.17;100184.59;2100165;28;4048;-36
2021/05/10 02:55:13;;;;;;;;;;;;;;;20.96;49.18;100186.28;2101681;28;3881;-36
2021/05/10 02:56:15;;;;;;;;;;;;;;;20.95;49.34;100182.59;2101840;28;4020;-35
2021/05/10 02:57:16;;;;;;;;;;;;;;;20.96;49.29;100183.44;2100375;28;4030;-34
2021/05/10 02:58:17;;;;;;;;;;;;;;;20.96;49.29;100192.78;2101488;28;4039;-34
2021/05/10 02:59:17;;;;;;;;;;;;;;;20.96;49.41;100186.28;2098555;28;4123;-33
2021/05/10 03:00:18;;;;;;;;;;;;;;;20.96;49.52;100186.28;2101573;28;4076;-33
2021/05/10 03:01:19;;;;;;;;;;;;;;;20.96;49.50;100191.97;2101904;28;4007;-35
2021/05/10 03:02:20;;;;;;;;;;;;;;;20.96;49.70;100183.44;2099611;28;3904;-35
2021/05/10 03:03:21;;;;;;;;;;;;;;;20.96;49.57;100189.94;2100547;28;4126;-35
2021/05/10 03:04:22;;;;;;;;;;;;;;;20.96;49.53;100183.44;2100360;28;4178;-33
2021/05/10 03:05:23;;;;;;;;;;;;;;;20.97;49.59;100190.75;2102583;28;3876;-31
2021/05/10 03:06:24;;;;;;;;;;;;;;;20.96;49.54;100189.94;2092351;28;4087;-35
2021/05/10 03:07:24;;;;;;;;;;;;;;;20.97;49.66;100193.59;2092492;28;4004;-37
2021/05/10 03:08:25;;;;;;;;;;;;;;;20.97;49.78;100196.44;2093571;28;4028;-35
2021/05/10 03:09:26;;;;;;;;;;;;;;;20.97;49.89;100200.09;2101734;28;4014;-35
2021/05/10 03:10:26;;;;;;;;;;;;;;;20.97;49.90;100202.94;2101797;28;4000;-38
2021/05/10 03:11:28;;;;;;;;;;;;;;;20.97;49.78;100199.28;2100982;28;4316;-33
2021/05/10 03:12:29;;;;;;;;;;;;;;;20.98;49.70;100193.25;2101816;28;4008;-38
2021/05/10 03:13:31;;;;;;;;;;;;;;;20.98;49.71;100195.22;2101300;28;4069;-38
2021/05/10 03:14:32;;;;;;;;;;;;;;;20.97;49.83;100193.59;2101543;28;4017;-36
2021/05/10 03:15:32;;;;;;;;;;;;;;;20.97;49.77;100194.41;2102262;28;4161;-35
2021/05/10 03:16:33;;;;;;;;;;;;;;;20.97;49.88;100197.25;2098921;28;4060;-35
2021/05/10 03:17:34;;;;;;;;;;;;;;;20.97;49.77;100200.09;2101587;28;3887;-32
2021/05/10 03:18:35;;;;;;;;;;;;;;;20.97;49.92;100200.09;2101392;28;4038;-34
2021/05/10 03:19:36;;;;;;;;;;;;;;;20.97;49.80;100200.09;2099585;28;3954;-31
2021/05/10 03:20:36;;;;;;;;;;;;;;;20.97;49.80;100194.41;2100531;28;4237;-34
2021/05/10 03:21:37;;;;;;;;;;;;;;;20.98;49.79;100198.06;2101142;28;4313;-35
2021/05/10 03:22:38;;;;;;;;;;;;;;;20.97;49.95;100202.94;2101448;28;4038;-33
2021/05/10 03:23:39;;;;;;;;;;;;;;;20.99;49.77;100202.59;2101708;28;4110;-34
2021/05/10 03:24:40;;;;;;;;;;;;;;;20.98;49.76;100198.06;2100514;28;4182;-32
2021/05/10 03:25:41;;;;;;;;;;;;;;;20.99;49.78;100203.41;2101536;28;4013;-36
2021/05/10 03:26:42;;;;;;;;;;;;;;;20.98;49.79;100204.63;2100980;28;3899;-37
2021/05/10 03:27:42;;;;;;;;;;;;;;;20.98;49.74;100203.75;2100926;28;4042;-35
2021/05/10 03:28:43;;;;;;;;;;;;;;;20.98;49.94;100200.91;2101139;28;4043;-30
2021/05/10 03:29:44;;;;;;;;;;;;;;;20.98;49.96;100201.78;2101725;28;4073;-37
2021/05/10 03:30:45;;;;;;;;;;;;;;;20.98;49.88;100207.47;2101472;28;3863;-35
2021/05/10 03:31:45;;;;;;;;;;;;;;;20.99;49.91;100205.44;2099436;28;4124;-30
2021/05/10 03:32:46;;;;;;;;;;;;;;;20.99;49.79;100209.09;2099312;28;4094;-35
2021/05/10 03:33:47;;;;;;;;;;;;;;;20.99;49.84;100200.56;2100700;28;4111;-34
2021/05/10 03:34:48;;;;;;;;;;;;;;;20.99;49.79;100209.09;2101229;28;4050;-32
2021/05/10 03:35:48;;;;;;;;;;;;;;;20.98;49.78;100210.31;2101131;28;3988;-33
2021/05/10 03:36:49;;;;;;;;;;;;;;;21.00;49.72;100213.56;2100757;28;4004;-37
2021/05/10 03:37:50;;;;;;;;;;;;;;;21.00;49.94;100207.06;2099841;28;4066;-36
2021/05/10 03:38:52;;;;;;;;;;;;;;;21.00;49.85;100212.75;2099469;28;4025;-33
2021/05/10 03:39:52;;;;;;;;;;;;;;;21.00;49.81;100210.75;2100170;28;3972;-36
2021/05/10 03:40:53;;;;;;;;;;;;;;;21.00;49.98;100218.44;2101739;28;4013;-38
2021/05/10 03:41:54;;;;;;;;;;;;;;;21.00;49.81;100209.91;2099298;28;4220;-32
2021/05/10 03:42:55;;;;;;;;;;;;;;;20.99;49.83;100209.09;2101669;28;4042;-34
2021/05/10 03:43:57;;;;;;;;;;;;;;;20.99;49.97;100208.28;2101190;28;4122;-34
2021/05/10 03:44:58;;;;;;;;;;;;;;;20.98;49.74;100204.63;2100375;28;3999;-38
2021/05/10 03:45:58;;;;;;;;;;;;;;;20.98;49.73;100207.47;2101279;28;3881;-37
2021/05/10 03:46:59;;;;;;;;;;;;;;;20.99;49.67;100203.41;2101151;28;4020;-36
2021/05/10 03:48:00;;;;;;;;;;;;;;;20.99;49.67;100209.09;2101620;28;4195;-35
2021/05/10 03:49:01;;;;;;;;;;;;;;;20.99;49.78;100213.97;2101740;28;4055;-32
2021/05/10 03:50:02;;;;;;;;;;;;;;;20.99;49.58;100211.13;2101358;28;3953;-35
2021/05/10 03:51:03;;;;;;;;;;;;;;;20.98;49.51;100215.13;2102201;28;4010;-36
2021/05/10 03:52:03;;;;;;;;;;;;;;;20.99;49.55;100213.97;2101674;28;3944;-32
2021/05/10 03:53:04;;;;;;;;;;;;;;;20.99;49.65;100217.63;2100981;28;3822;-33
2021/05/10 03:54:05;;;;;;;;;;;;;;;20.98;49.71;100215.13;2101283;28;4672;-33
2021/05/10 03:55:05;;;;;;;;;;;;;;;20.99;49.63;100229.00;2101651;28;3946;-34
2021/05/10 03:56:06;;;;;;;;;;;;;;;21.00;49.67;100226.97;2102463;28;4054;-34
2021/05/10 03:57:07;;;;;;;;;;;;;;;21.00;49.61;100218.44;2103877;28;3876;-32
2021/05/10 03:58:12;;;;;;;;;;;;;;;21.00;49.71;100209.91;2104388;28;3873;-33
2021/05/10 03:59:12;;;;;;;;;;;;;;;20.99;49.73;100216.81;2104339;28;4053;-36
2021/05/10 04:00:13;;;;;;;;;;;;;;;20.98;49.71;100213.16;2104533;28;3963;-33
2021/05/10 04:01:13;;;;;;;;;;;;;;;20.99;49.74;100229.00;2104504;28;4098;-34
2021/05/10 04:02:15;;;;;;;;;;;;;;;21.00;49.83;100235.50;2103938;28;4095;-31
2021/05/10 04:03:17;;;;;;;;;;;;;;;20.99;49.70;100231.84;2104507;28;4041;-37
2021/05/10 04:04:25;;;;;;;;;;;;;;;20.99;49.82;100220.47;2104394;28;4074;-36
2021/05/10 04:05:46;;;;;;;;;;;;;;;20.98;49.62;100216.00;2103333;28;4030;-34
2021/05/10 04:07:05;;;;;;;;;;;;;;;21.00;49.59;100215.59;2103948;28;3864;-33
2021/05/10 04:11:03;;;;;;;;;;;;;;;20.99;49.77;100216.81;2104220;28;4127;-32
2021/05/10 04:13:40;;;;;;;;;;;;;;;20.99;49.86;100209.09;2103638;28;4923;-37
2021/05/10 04:14:40;;;;;;;;;;;;;;;20.99;49.65;100213.97;2104280;28;4205;-36
2021/05/10 04:15:41;;;;;;;;;;;;;;;20.98;49.64;100210.31;2104173;28;3915;-32
2021/05/10 04:16:42;;;;;;;;;;;;;;;20.99;49.84;100208.28;2104403;28;4056;-36
2021/05/10 04:17:43;;;;;;;;;;;;;;;20.99;49.66;100205.44;2102683;28;4025;-31
2021/05/10 04:18:44;;;;;;;;;;;;;;;20.98;49.70;100196.09;2104047;28;4022;-35
2021/05/10 04:19:45;;;;;;;;;;;;;;;20.98;49.79;100201.78;2104194;28;4072;-30
2021/05/10 04:20:45;;;;;;;;;;;;;;;20.99;49.75;100202.59;2104521;28;4001;-36
2021/05/10 04:21:46;;;;;;;;;;;;;;;20.97;49.55;100200.09;2103470;28;4075;-38
2021/05/10 04:22:47;;;;;;;;;;;;;;;20.98;49.47;100195.22;2104271;28;4079;-35
2021/05/10 04:23:48;;;;;;;;;;;;;;;20.98;49.49;100204.63;2104129;28;4062;-37
2021/05/10 04:24:49;;;;;;;;;;;;;;;20.98;49.67;100213.16;2104473;28;3849;-37
2021/05/10 04:25:50;;;;;;;;;;;;;;;20.98;49.64;100207.47;2103112;28;4017;-32
2021/05/10 04:26:51;;;;;;;;;;;;;;;20.98;49.48;100207.47;2104091;28;4136;-36
2021/05/10 04:27:52;;;;;;;;;;;;;;;20.98;49.49;100203.75;2103672;28;4870;-32
2021/05/10 04:28:53;;;;;;;;;;;;;;;20.98;49.54;100200.91;2104925;28;3972;-34
2021/05/10 04:29:53;;;;;;;;;;;;;;;20.98;49.72;100206.59;2104697;28;4209;-36
2021/05/10 04:30:55;;;;;;;;;;;;;;;20.98;49.79;100198.94;2103615;28;3895;-37
2021/05/10 04:31:56;;;;;;;;;;;;;;;20.99;49.57;100202.59;2103665;28;3969;-34
2021/05/10 04:32:57;;;;;;;;;;;;;;;20.97;49.72;100200.09;2103222;28;3861;-36
2021/05/10 04:33:58;;;;;;;;;;;;;;;20.97;49.65;100193.59;2104325;28;3969;-33
2021/05/10 04:34:59;;;;;;;;;;;;;;;20.97;49.72;100200.09;2102122;28;4021;-35
2021/05/10 04:35:59;;;;;;;;;;;;;;;20.98;49.87;100187.56;2104770;28;3866;-37
2021/05/10 04:37:00;;;;;;;;;;;;;;;20.98;49.78;100196.09;2104458;28;4244;-37
2021/05/10 04:38:05;;;;;;;;;;;;;;;20.98;49.79;100190.41;2103801;28;3852;-35
2021/05/10 04:39:05;;;;;;;;;;;;;;;20.97;49.70;100187.91;2094299;28;4582;-30
2021/05/10 04:40:06;;;;;;;;;;;;;;;20.98;49.83;100186.69;2094652;28;4042;-35
2021/05/10 04:41:07;;;;;;;;;;;;;;;20.98;49.79;100189.53;2102963;28;4093;-32
2021/05/10 04:42:08;;;;;;;;;;;;;;;20.98;49.72;100189.53;2102338;28;4800;-34
2021/05/10 04:43:08;;;;;;;;;;;;;;;20.97;49.63;100187.91;2102209;28;4099;-33
2021/05/10 04:44:09;;;;;;;;;;;;;;;20.98;49.52;100189.53;2104130;28;4063;-35
2021/05/10 04:45:10;;;;;;;;;;;;;;;20.98;49.63;100195.22;2103355;28;4033;-34
2021/05/10 04:46:11;;;;;;;;;;;;;;;20.97;49.80;100197.25;2104044;28;4016;-32
2021/05/10 04:47:11;;;;;;;;;;;;;;;20.98;49.76;100192.38;2101614;28;4173;-33
2021/05/10 04:48:12;;;;;;;;;;;;;;;20.97;49.76;100193.59;2104370;28;4220;-34
2021/05/10 04:49:13;;;;;;;;;;;;;;;20.98;49.79;100189.53;2104309;28;4052;-32
2021/05/10 04:50:14;;;;;;;;;;;;;;;20.98;49.87;100190.41;2103949;28;4002;-35
2021/05/10 04:51:17;;;;;;;;;;;;;;;20.98;49.80;100198.06;2103890;28;4052;-31
2021/05/10 04:52:17;;;;;;;;;;;;;;;20.98;49.80;100192.38;2104148;28;4046;-34
2021/05/10 04:53:18;;;;;;;;;;;;;;;20.98;49.88;100189.53;2104214;28;4001;-35
2021/05/10 04:54:19;;;;;;;;;;;;;;;20.98;49.83;100189.53;2103788;28;4066;-34
2021/05/10 04:55:20;;;;;;;;;;;;;;;20.97;49.74;100185.06;2104082;28;3873;-35
2021/05/10 04:56:20;;;;;;;;;;;;;;;20.97;49.71;100185.06;2104373;28;4115;-35
2021/05/10 04:57:21;;;;;;;;;;;;;;;20.97;49.56;100191.56;2096410;28;4235;-32
2021/05/10 04:58:22;;;;;;;;;;;;;;;20.97;49.44;100185.06;2104041;28;4102;-36
2021/05/10 04:59:22;;;;;;;;;;;;;;;20.96;49.39;100189.13;2104116;28;4851;-32
2021/05/10 05:00:23;;;;;;;;;;;;;;;20.93;49.16;100184.16;2103996;28;4037;-32
2021/05/10 05:01:24;;;;;;;;;;;;;;;20.89;49.00;100187.72;2103857;28;4101;-35
2021/05/10 05:02:25;;;;;;;;;;;;;;;20.87;48.81;100184.44;2103765;28;4019;-34
2021/05/10 05:03:26;;;;;;;;;;;;;;;20.84;48.27;100185.19;2104177;28;3988;-35
2021/05/10 05:04:27;;;;;;;;;;;;;;;20.77;47.43;100181.31;2103503;28;4064;-35
2021/05/10 05:05:28;;;;;;;;;;;;;;;20.71;47.26;100175.09;2103850;28;4029;-36
2021/05/10 05:06:29;;;;;;;;;;;;;;;20.65;47.24;100183.06;2103883;28;3870;-34
2021/05/10 05:07:30;;;;;;;;;;;;;;;20.63;47.19;100181.78;2103462;28;4011;-34
2021/05/10 05:08:31;;;;;;;;;;;;;;;20.60;46.50;100174.00;2100745;28;4137;-32
2021/05/10 05:09:32;;;;;;;;;;;;;;;;;;2102520;28;3826;-36
2021/05/10 05:10:32;;;;;;;;;;;;;;;20.63;47.10;100170.41;2102746;28;3953;-36
2021/05/10 05:11:33;;;;;;;;;;;;;;;20.67;47.41;100160.78;2102796;28;4026;-35
2021/05/10 05:12:34;;;;;;;;;;;;;;;20.71;47.38;100175.09;2100467;28;3873;-32
2021/05/10 05:13:35;;;;;;;;;;;;;;;20.74;47.58;100170.69;2102531;28;4022;-32
2021/05/10 05:14:35;;;;;;;;;;;;;;;20.75;47.52;100167.47;2102951;28;4021;-33
2021/05/10 05:15:37;;;;;;;;;;;;;;;20.76;47.47;100166.28;2103359;28;3998;-33
2021/05/10 05:16:38;;;;;;;;;;;;;;;20.78;47.70;100172.41;2102782;28;4880;-30
2021/05/10 05:17:39;;;;;;;;;;;;;;;20.80;47.69;100172.06;2102933;28;3868;-32
2021/05/10 05:18:40;;;;;;;;;;;;;;;20.79;47.62;100179.78;2102492;28;4095;-36
2021/05/10 05:19:41;;;;;;;;;;;;;;;20.81;47.70;100183.03;2102770;28;4080;-37
2021/05/10 05:20:41;;;;;;;;;;;;;;;20.81;47.77;100177.34;2102760;28;4054;-35
2021/05/10 05:21:42;;;;;;;;;;;;;;;20.81;47.89;100174.53;2102738;28;3970;-33
2021/05/10 05:22:43;;;;;;;;;;;;;;;20.82;47.80;100175.38;2102719;28;3889;-32